Time;durP1;ratioP1;P1;durP2;ratioP2;P2;SDS_P1;SDS_P2;PMS_P1;PMS_P2;Temp;Humidity;BMP_temperature;BMP_pressure;BME280_temperature;BME280_humidity;BME280_pressure;Samples;Min_cycle;Max_cycle;Signal;HPM_P1;HPM_P2
2023/06/07 00:00:24;;;;;;;3.83;2.80;;;15.00;93.30;;;;;;5062332;28;20472;-71
2023/06/07 00:03:11;;;;;;;8.17;2.80;;;14.90;93.70;;;;;;5064524;28;20511;-70
2023/06/07 00:06:00;;;;;;;8.30;3.20;;;15.00;93.30;;;;;;5055545;28;20430;-73
2023/06/07 00:08:47;;;;;;;10.23;3.40;;;14.90;93.30;;;;;;5060190;28;20447;-73
2023/06/07 00:11:32;;;;;;;4.57;3.10;;;14.90;93.70;;;;;;5062834;28;21170;-70
2023/06/07 00:14:18;;;;;;;5.27;3.20;;;14.80;94.10;;;;;;5065044;28;20458;-70
2023/06/07 00:17:04;;;;;;;3.90;2.67;;;14.80;94.00;;;;;;5056117;28;20550;-70
2023/06/07 00:19:52;;;;;;;5.87;3.50;;;14.70;94.40;;;;;;5061372;28;20455;-70
2023/06/07 00:22:38;;;;;;;5.13;3.10;;;14.80;94.00;;;;;;5054414;28;20579;-70
2023/06/07 00:25:25;;;;;;;3.93;3.50;;;14.70;94.20;;;;;;5059301;28;20889;-70
2023/06/07 00:28:11;;;;;;;3.70;3.03;;;14.80;94.20;;;;;;5061345;28;20424;-70
2023/06/07 00:30:56;;;;;;;7.53;3.03;;;14.70;94.60;;;;;;5061955;28;20418;-70
2023/06/07 00:33:42;;;;;;;4.60;2.67;;;14.70;94.50;;;;;;5058032;28;20428;-70
2023/06/07 00:36:28;;;;;;;3.80;3.03;;;14.70;94.60;;;;;;5045929;28;21135;-71
2023/06/07 00:39:13;;;;;;;5.10;3.00;;;14.50;95.50;;;;;;5047389;28;20467;-70
2023/06/07 00:42:00;;;;;;;4.57;3.43;;;14.50;95.40;;;;;;5061562;28;20407;-70
2023/06/07 00:44:46;;;;;;;5.47;3.30;;;14.30;96.80;;;;;;5066801;28;20967;-71
2023/06/07 00:47:32;;;;;;;5.30;2.80;;;14.30;97.60;;;;;;5059864;28;20436;-70
2023/06/07 00:50:17;;;;;;;5.33;2.90;;;14.30;97.60;;;;;;5061994;28;20907;-70
2023/06/07 00:53:05;;;;;;;3.30;2.93;;;14.40;97.60;;;;;;5066015;28;20436;-70
2023/06/07 00:55:51;;;;;;;4.93;3.50;;;14.40;97.20;;;;;;5063446;28;21043;-70
2023/06/07 00:58:38;;;;;;;3.93;2.90;;;14.40;97.30;;;;;;5062093;28;20795;-72
2023/06/07 01:01:23;;;;;;;3.80;2.73;;;14.40;96.90;;;;;;5057634;28;20498;-71
2023/06/07 01:04:09;;;;;;;4.80;3.07;;;14.50;96.90;;;;;;5052983;28;20403;-72
2023/06/07 01:06:54;;;;;;;4.23;3.10;;;14.50;96.90;;;;;;5045134;28;20534;-72
2023/06/07 01:09:40;;;;;;;10.53;2.73;;;14.30;97.20;;;;;;5051646;28;20503;-70
2023/06/07 01:12:27;;;;;;;5.17;3.17;;;14.30;97.40;;;;;;5057363;28;20960;-70
2023/06/07 01:15:14;;;;;;;6.93;3.00;;;14.30;97.80;;;;;;5061530;28;20601;-70
2023/06/07 01:18:01;;;;;;;4.23;2.60;;;14.20;98.10;;;;;;5056861;28;20421;-71
2023/06/07 01:20:50;;;;;;;4.13;3.30;;;14.10;98.40;;;;;;5066757;28;20428;-70
2023/06/07 01:23:37;;;;;;;3.63;3.00;;;14.00;98.70;;;;;;5059794;28;20436;-71
2023/06/07 01:26:26;;;;;;;4.77;3.00;;;14.10;99.20;;;;;;5062155;28;20398;-72
2023/06/07 01:29:12;;;;;;;8.77;3.20;;;14.00;99.50;;;;;;5054960;28;20487;-72
2023/06/07 01:32:01;;;;;;;7.17;3.23;;;14.00;99.60;;;;;;5060953;28;20444;-70
2023/06/07 01:34:48;;;;;;;3.73;3.00;;;14.00;99.90;;;;;;5059323;28;20518;-70
2023/06/07 01:37:35;;;;;;;3.73;2.93;;;13.90;99.90;;;;;;5062775;28;21009;-71
2023/06/07 01:40:24;;;;;;;3.70;2.80;;;14.00;99.90;;;;;;5065866;28;20486;-70
2023/06/07 01:43:10;;;;;;;3.50;2.73;;;14.00;99.80;;;;;;5060228;28;20401;-70
2023/06/07 01:45:57;;;;;;;6.67;3.30;;;14.00;99.80;;;;;;5056133;28;20889;-71
2023/06/07 01:48:43;;;;;;;4.13;2.93;;;14.00;99.60;;;;;;5048373;28;21084;-70
2023/06/07 01:51:28;;;;;;;4.20;3.00;;;13.90;99.60;;;;;;5057258;28;20946;-70
2023/06/07 01:54:14;;;;;;;5.60;3.13;;;13.90;99.90;;;;;;5060657;28;20943;-70
2023/06/07 01:57:11;;;;;;;6.60;3.60;;;13.90;99.90;;;;;;5059106;28;20431;-70
2023/06/07 02:00:10;;;;;;;3.43;2.57;;;13.90;99.90;;;;;;5051516;28;20518;-70
2023/06/07 02:02:59;;;;;;;3.50;2.90;;;13.90;99.90;;;;;;5056941;28;20582;-70
2023/06/07 02:05:49;;;;;;;6.27;3.33;;;13.70;99.90;;;;;;5063165;28;20449;-71
2023/06/07 02:08:38;;;;;;;4.10;3.00;;;13.70;99.90;;;;;;5061242;28;20529;-70
2023/06/07 02:11:25;;;;;;;4.77;3.00;;;13.80;99.90;;;;;;5056955;28;20530;-70
2023/06/07 02:14:12;;;;;;;3.40;2.83;;;13.80;99.90;;;;;;5040458;28;20622;-70
2023/06/07 02:16:58;;;;;;;9.53;3.37;;;13.80;99.90;;;;;;5051975;28;20928;-71
2023/06/07 02:19:44;;;;;;;9.23;4.50;;;13.80;99.90;;;;;;5050448;28;20888;-70
2023/06/07 02:22:29;;;;;;;4.37;2.93;;;13.80;99.90;;;;;;5059580;28;20948;-71
2023/06/07 02:25:15;;;;;;;6.40;2.87;;;13.90;99.90;;;;;;5063680;28;20547;-70
2023/06/07 02:28:01;;;;;;;3.83;3.10;;;14.00;99.90;;;;;;5049607;28;20432;-70
2023/06/07 02:30:48;;;;;;;9.63;3.20;;;13.90;99.90;;;;;;5056928;28;20562;-71
2023/06/07 02:33:33;;;;;;;4.00;2.80;;;13.90;99.90;;;;;;5053641;28;20467;-72
2023/06/07 02:36:22;;;;;;;6.43;2.90;;;13.70;99.90;;;;;;5051207;28;21078;-71
2023/06/07 02:39:07;;;;;;;5.90;3.70;;;13.70;99.90;;;;;;5049375;28;20498;-70
2023/06/07 02:41:53;;;;;;;3.70;3.10;;;13.70;99.90;;;;;;5048394;28;20448;-72
2023/06/07 02:44:38;;;;;;;7.10;3.40;;;13.70;99.90;;;;;;5050036;28;20986;-71
2023/06/07 02:47:25;;;;;;;9.50;3.00;;;13.80;99.90;;;;;;5048341;28;20435;-73
2023/06/07 02:50:10;;;;;;;6.00;2.87;;;13.70;99.90;;;;;;5040217;28;20465;-71
2023/06/07 02:52:56;;;;;;;11.00;3.30;;;13.70;99.90;;;;;;5061923;28;20406;-71
2023/06/07 02:55:41;;;;;;;17.73;3.90;;;13.60;99.90;;;;;;5057546;28;21100;-71
2023/06/07 02:58:27;;;;;;;10.03;3.87;;;13.60;99.90;;;;;;5044811;28;20662;-71
2023/06/07 03:01:14;;;;;;;10.60;3.50;;;13.60;99.90;;;;;;5059315;28;20784;-71
2023/06/07 03:04:00;;;;;;;4.47;2.60;;;13.60;99.90;;;;;;5058217;28;20884;-71
2023/06/07 03:06:47;;;;;;;6.53;3.20;;;13.70;99.90;;;;;;5053043;28;20394;-71
2023/06/07 03:09:32;;;;;;;9.33;2.87;;;13.80;99.90;;;;;;5058761;28;20460;-71
2023/06/07 03:12:17;;;;;;;5.60;2.97;;;13.70;99.90;;;;;;5053013;28;20447;-71
2023/06/07 03:15:03;;;;;;;4.43;3.50;;;13.50;99.90;;;;;;5062186;28;21048;-71
2023/06/07 03:17:48;;;;;;;6.53;3.80;;;13.40;99.90;;;;;;5051271;28;20433;-70
2023/06/07 03:20:35;;;;;;;5.07;3.00;;;13.30;99.90;;;;;;5050435;28;20450;-73
2023/06/07 03:23:20;;;;;;;5.80;3.80;;;13.40;99.90;;;;;;5059294;28;20841;-70
2023/06/07 03:26:07;;;;;;;5.73;3.10;;;13.50;99.90;;;;;;5059563;28;20460;-71
2023/06/07 03:28:54;;;;;;;4.83;3.37;;;13.40;99.90;;;;;;5053323;28;20482;-71
2023/06/07 03:31:40;;;;;;;3.63;3.23;;;13.30;99.90;;;;;;5066816;28;20801;-71
2023/06/07 03:34:29;;;;;;;9.67;3.37;;;13.40;99.90;;;;;;5057704;28;20432;-70
2023/06/07 03:37:16;;;;;;;14.37;3.70;;;13.40;99.90;;;;;;5053322;28;20402;-70
2023/06/07 03:40:01;;;;;;;5.10;3.37;;;13.40;99.90;;;;;;5040816;28;20447;-70
2023/06/07 03:42:47;;;;;;;7.80;3.30;;;13.40;99.90;;;;;;5049435;28;20427;-71
2023/06/07 03:45:32;;;;;;;10.20;3.07;;;13.50;99.90;;;;;;5054324;28;20431;-71
2023/06/07 03:48:18;;;;;;;7.97;3.30;;;13.50;99.90;;;;;;5051881;28;20432;-71
2023/06/07 03:51:03;;;;;;;4.83;3.60;;;13.50;99.90;;;;;;5060345;28;20448;-71
2023/06/07 03:53:50;;;;;;;9.80;3.70;;;13.40;99.90;;;;;;5056456;28;20820;-71
2023/06/07 03:56:36;;;;;;;11.20;3.27;;;13.40;99.90;;;;;;5050192;28;20583;-72
2023/06/07 03:59:22;;;;;;;7.50;3.40;;;13.50;99.90;;;;;;5048726;28;20446;-70
2023/06/07 04:02:07;;;;;;;6.10;3.40;;;13.50;99.90;;;;;;5047129;28;20915;-71
2023/06/07 04:04:54;;;;;;;8.80;3.40;;;13.70;99.90;;;;;;5047250;28;20451;-70
2023/06/07 04:07:39;;;;;;;4.77;3.77;;;13.90;99.90;;;;;;5053910;28;20421;-72
2023/06/07 04:10:26;;;;;;;6.27;3.47;;;14.00;99.90;;;;;;5046517;28;20464;-71
2023/06/07 04:13:11;;;;;;;3.00;2.70;;;14.10;99.90;;;;;;5054580;28;20579;-71
2023/06/07 04:15:57;;;;;;;4.80;3.50;;;14.30;99.90;;;;;;5050973;28;20471;-70
2023/06/07 04:18:42;;;;;;;4.70;3.50;;;14.40;99.90;;;;;;5047359;28;20471;-72
2023/06/07 04:21:28;;;;;;;6.17;3.57;;;14.40;99.90;;;;;;5060944;28;20989;-71
2023/06/07 04:24:14;;;;;;;8.40;3.20;;;14.50;99.90;;;;;;5046070;28;20440;-70
2023/06/07 04:27:02;;;;;;;6.50;4.30;;;14.50;99.90;;;;;;5051711;28;20996;-71
2023/06/07 04:29:49;;;;;;;3.97;3.07;;;14.60;99.90;;;;;;5059184;28;20475;-71
2023/06/07 04:32:37;;;;;;;5.33;3.60;;;14.70;99.90;;;;;;5057138;28;20418;-70
2023/06/07 04:35:23;;;;;;;4.60;3.37;;;14.80;99.90;;;;;;5049026;28;20577;-71
2023/06/07 04:38:08;;;;;;;6.80;3.50;;;14.90;99.90;;;;;;5047743;28;20440;-71
2023/06/07 04:40:54;;;;;;;4.27;3.50;;;14.90;99.90;;;;;;5049715;28;20828;-72
2023/06/07 04:43:42;;;;;;;5.30;3.83;;;15.00;99.90;;;;;;5058245;28;20523;-70
2023/06/07 04:46:28;;;;;;;6.20;3.97;;;15.10;99.90;;;;;;5060034;28;20451;-71
2023/06/07 04:49:17;;;;;;;12.43;3.60;;;15.20;99.90;;;;;;5049079;28;20464;-71
2023/06/07 04:52:03;;;;;;;4.53;3.50;;;15.20;99.90;;;;;;5051967;28;20970;-70
2023/06/07 04:54:49;;;;;;;5.60;4.07;;;15.30;99.90;;;;;;5053809;28;20447;-72
2023/06/07 04:57:35;;;;;;;6.50;3.30;;;15.30;99.90;;;;;;5050381;28;20436;-72
2023/06/07 05:00:22;;;;;;;11.03;4.97;;;15.30;99.90;;;;;;5052561;28;20472;-70
2023/06/07 05:03:08;;;;;;;5.77;3.97;;;15.20;99.90;;;;;;5048391;28;20534;-71
2023/06/07 05:05:55;;;;;;;13.87;4.80;;;15.00;99.90;;;;;;5045921;28;21310;-71
2023/06/07 05:08:40;;;;;;;5.40;3.87;;;14.90;99.90;;;;;;5048703;28;20992;-71
2023/06/07 05:11:26;;;;;;;8.97;3.93;;;15.10;99.90;;;;;;5050881;28;21022;-71
2023/06/07 05:14:11;;;;;;;5.33;4.03;;;15.20;99.90;;;;;;5051211;28;20436;-72
2023/06/07 05:16:59;;;;;;;5.10;4.07;;;15.40;99.90;;;;;;5055747;28;20491;-71
2023/06/07 05:19:45;;;;;;;5.50;4.03;;;15.40;99.90;;;;;;5032326;28;20926;-71
2023/06/07 05:22:30;;;;;;;6.30;3.30;;;15.60;99.90;;;;;;5057688;28;20424;-71
2023/06/07 05:25:16;;;;;;;11.73;4.20;;;15.90;99.90;;;;;;5055374;28;20430;-71
2023/06/07 05:28:03;;;;;;;6.17;4.60;;;16.10;99.90;;;;;;5045531;28;20521;-71
2023/06/07 05:30:49;;;;;;;6.30;3.40;;;16.00;99.90;;;;;;5037831;28;20419;-73
2023/06/07 05:33:36;;;;;;;4.27;3.57;;;16.00;99.90;;;;;;5062379;28;20424;-73
2023/06/07 05:36:21;;;;;;;12.50;4.13;;;16.10;99.90;;;;;;5050069;28;20464;-73
2023/06/07 05:39:07;;;;;;;4.80;3.60;;;16.30;99.90;;;;;;5056198;28;20501;-73
2023/06/07 05:41:52;;;;;;;6.00;3.50;;;16.40;99.90;;;;;;5066781;28;20574;-73
2023/06/07 05:44:38;;;;;;;4.97;3.67;;;16.60;99.90;;;;;;5059925;28;20510;-73
2023/06/07 05:47:25;;;;;;;4.20;3.27;;;16.70;99.90;;;;;;5059758;28;20898;-73
2023/06/07 05:50:14;;;;;;;5.23;4.27;;;16.80;99.90;;;;;;5061362;28;20586;-73
2023/06/07 05:53:00;;;;;;;6.97;3.53;;;16.90;99.90;;;;;;5050611;28;20447;-74
2023/06/07 05:55:47;;;;;;;6.03;3.47;;;17.00;99.90;;;;;;5062240;28;20478;-73
2023/06/07 05:58:33;;;;;;;5.03;3.60;;;17.10;99.90;;;;;;5055649;28;20457;-73
2023/06/07 06:01:18;;;;;;;6.23;3.87;;;17.20;99.90;;;;;;5050422;28;20424;-73
2023/06/07 06:04:04;;;;;;;8.43;4.13;;;17.30;99.90;;;;;;5038856;28;20421;-73
2023/06/07 06:06:52;;;;;;;5.73;3.30;;;17.30;99.90;;;;;;5051449;28;20562;-74
2023/06/07 06:09:38;;;;;;;4.20;3.60;;;17.40;99.90;;;;;;5060180;28;20448;-73
2023/06/07 06:12:23;;;;;;;7.43;3.10;;;17.40;99.90;;;;;;5060041;28;20450;-72
2023/06/07 06:15:09;;;;;;;5.10;3.60;;;17.40;99.90;;;;;;5049628;28;20463;-73
2023/06/07 06:17:54;;;;;;;4.27;3.30;;;17.50;99.90;;;;;;5050330;28;20586;-73
2023/06/07 06:20:40;;;;;;;5.03;3.83;;;17.50;99.90;;;;;;5052768;28;20580;-73
2023/06/07 06:23:27;;;;;;;9.30;3.80;;;17.60;99.90;;;;;;5049527;28;20440;-73
2023/06/07 06:26:12;;;;;;;4.20;3.80;;;17.60;99.90;;;;;;5060224;28;20933;-73
2023/06/07 06:28:58;;;;;;;10.20;4.70;;;17.60;99.90;;;;;;5065340;28;20979;-72
2023/06/07 06:31:44;;;;;;;12.67;4.50;;;17.80;99.90;;;;;;5060819;28;20513;-72
2023/06/07 06:34:29;;;;;;;9.53;4.37;;;17.90;99.90;;;;;;5058648;28;20796;-73
2023/06/07 06:37:15;;;;;;;7.73;3.23;;;18.10;99.90;;;;;;5053586;28;20466;-73
2023/06/07 06:40:01;;;;;;;8.13;4.83;;;18.20;98.30;;;;;;5056440;28;20486;-72
2023/06/07 06:42:47;;;;;;;5.00;3.80;;;18.30;96.60;;;;;;5059890;28;20450;-73
2023/06/07 06:45:32;;;;;;;6.07;4.47;;;18.50;96.60;;;;;;5063523;28;20431;-73
2023/06/07 06:48:18;;;;;;;5.30;3.70;;;18.60;97.50;;;;;;5059882;28;20419;-73
2023/06/07 06:51:04;;;;;;;5.07;4.07;;;18.70;97.70;;;;;;5063915;28;20453;-73
2023/06/07 06:53:49;;;;;;;5.13;3.63;;;18.80;97.40;;;;;;5065682;28;20508;-73
2023/06/07 06:56:36;;;;;;;6.00;3.67;;;18.90;96.50;;;;;;5069435;28;20453;-72
2023/06/07 06:59:21;;;;;;;5.10;3.87;;;18.90;97.00;;;;;;5048755;28;20462;-73
2023/06/07 07:02:07;;;;;;;5.50;3.80;;;18.80;96.50;;;;;;5040260;28;20436;-73
2023/06/07 07:04:53;;;;;;;6.93;3.80;;;18.90;96.70;;;;;;5061116;28;20573;-73
2023/06/07 07:07:39;;;;;;;6.80;3.63;;;18.90;96.10;;;;;;5062440;28;20784;-73
2023/06/07 07:10:24;;;;;;;4.43;3.73;;;19.00;96.20;;;;;;5062709;28;20442;-73
2023/06/07 07:13:11;;;;;;;4.83;4.00;;;19.00;96.70;;;;;;5065544;28;20431;-73
2023/06/07 07:15:56;;;;;;;5.40;3.40;;;19.00;96.70;;;;;;5050241;28;21094;-74
2023/06/07 07:18:42;;;;;;;6.13;3.90;;;19.00;96.70;;;;;;5066197;28;20811;-73
2023/06/07 07:21:28;;;;;;;4.90;4.17;;;19.10;96.80;;;;;;5063541;28;20439;-73
2023/06/07 07:24:13;;;;;;;5.37;4.10;;;19.10;96.00;;;;;;5062242;28;20428;-73
2023/06/07 07:26:59;;;;;;;10.20;3.23;;;19.20;95.50;;;;;;5062155;28;20430;-73
2023/06/07 07:29:46;;;;;;;6.00;4.10;;;19.20;95.40;;;;;;5063468;28;20491;-72
2023/06/07 07:32:32;;;;;;;7.60;3.57;;;19.30;95.50;;;;;;5051152;28;20478;-73
2023/06/07 07:35:18;;;;;;;6.10;4.10;;;19.30;94.90;;;;;;5061446;28;20455;-74
2023/06/07 07:38:05;;;;;;;10.20;4.23;;;19.40;94.80;;;;;;5054245;28;20466;-72
2023/06/07 07:40:50;;;;;;;5.50;3.77;;;19.50;94.40;;;;;;5051548;28;20820;-73
2023/06/07 07:43:35;;;;;;;6.60;3.90;;;19.60;93.30;;;;;;5052720;28;20976;-73
2023/06/07 07:46:22;;;;;;;7.60;4.87;;;19.70;92.20;;;;;;5047515;28;20492;-73
2023/06/07 07:49:09;;;;;;;5.80;4.20;;;19.80;91.70;;;;;;5046883;28;20517;-73
2023/06/07 07:51:54;;;;;;;6.10;4.30;;;19.80;90.60;;;;;;5051830;28;20443;-73
2023/06/07 07:54:40;;;;;;;6.33;4.30;;;19.90;90.50;;;;;;5055218;28;20436;-73
2023/06/07 07:57:25;;;;;;;6.13;4.37;;;20.00;89.80;;;;;;5056784;28;20486;-73
2023/06/07 08:00:12;;;;;;;5.43;4.10;;;20.10;90.30;;;;;;5059160;28;20519;-72
2023/06/07 08:02:59;;;;;;;8.70;5.07;;;20.20;87.80;;;;;;5046300;28;20645;-73
2023/06/07 08:05:44;;;;;;;5.63;5.03;;;20.30;88.20;;;;;;5055093;28;20512;-72
2023/06/07 08:08:30;;;;;;;6.30;5.30;;;20.30;82.60;;;;;;5053489;28;20462;-73
2023/06/07 08:11:15;;;;;;;13.73;5.80;;;20.30;82.60;;;;;;5055106;28;20468;-72
2023/06/07 08:14:01;;;;;;;9.37;6.30;;;20.40;82.30;;;;;;5056020;28;20463;-73
2023/06/07 08:16:48;;;;;;;7.20;5.23;;;20.40;81.40;;;;;;5052632;28;20475;-73
2023/06/07 08:19:34;;;;;;;8.70;5.10;;;20.40;79.80;;;;;;5053467;28;20476;-73
2023/06/07 08:22:20;;;;;;;11.90;5.53;;;20.50;80.50;;;;;;5055652;28;20572;-72
2023/06/07 08:25:07;;;;;;;7.20;4.47;;;20.50;79.70;;;;;;5053504;28;20522;-73
2023/06/07 08:27:52;;;;;;;9.03;5.43;;;20.60;78.00;;;;;;5049627;28;20447;-71
2023/06/07 08:30:37;;;;;;;8.60;4.93;;;20.70;79.00;;;;;;5057973;28;20567;-73
2023/06/07 08:33:23;;;;;;;7.50;4.93;;;20.90;77.40;;;;;;5054765;28;20467;-73
2023/06/07 08:36:10;;;;;;;5.87;5.27;;;20.90;75.80;;;;;;5047188;28;20443;-73
2023/06/07 08:38:55;;;;;;;6.30;5.20;;;20.90;73.50;;;;;;5049738;28;21046;-71
2023/06/07 08:41:41;;;;;;;7.13;4.77;;;20.90;74.10;;;;;;5053849;28;20586;-73
2023/06/07 08:44:26;;;;;;;7.00;5.03;;;20.90;74.00;;;;;;5058913;28;20829;-73
2023/06/07 08:47:13;;;;;;;7.10;4.90;;;20.90;71.50;;;;;;5059493;28;20447;-73
2023/06/07 08:50:00;;;;;;;6.97;5.10;;;20.90;72.80;;;;;;5059995;28;20995;-72
2023/06/07 08:52:50;;;;;;;7.43;5.33;;;20.80;72.20;;;;;;5053693;28;20918;-72
2023/06/07 08:55:37;;;;;;;5.67;4.47;;;20.80;72.60;;;;;;5050295;28;20580;-73
2023/06/07 08:58:25;;;;;;;8.63;5.57;;;20.90;73.20;;;;;;5054260;28;20537;-71
2023/06/07 09:01:11;;;;;;;6.33;5.73;;;21.00;72.20;;;;;;5051170;28;20452;-73
2023/06/07 09:03:57;;;;;;;6.67;5.20;;;21.00;72.30;;;;;;5048876;28;20890;-73
2023/06/07 09:06:43;;;;;;;5.17;4.60;;;21.00;72.60;;;;;;5047600;28;20814;-73
2023/06/07 09:09:29;;;;;;;6.93;4.90;;;21.10;71.30;;;;;;5042929;28;20514;-74
2023/06/07 09:12:15;;;;;;;16.93;5.60;;;21.10;70.70;;;;;;5043880;28;20551;-73
2023/06/07 09:15:01;;;;;;;8.10;6.00;;;21.20;71.70;;;;;;5050736;28;20448;-73
2023/06/07 09:17:53;;;;;;;6.53;5.27;;;21.30;70.90;;;;;;5046860;28;20479;-73
2023/06/07 09:20:39;;;;;;;7.30;5.60;;;21.30;70.30;;;;;;5048499;28;20470;-73
2023/06/07 09:23:25;;;;;;;5.47;4.70;;;21.30;70.00;;;;;;5049493;28;20459;-73
2023/06/07 09:26:11;;;;;;;5.67;5.03;;;21.30;70.70;;;;;;5049792;28;20526;-73
2023/06/07 09:28:59;;;;;;;6.93;5.80;;;21.20;73.20;;;;;;5050866;28;20476;-74
2023/06/07 09:31:44;;;;;;;12.53;5.20;;;21.20;70.20;;;;;;5049083;28;20441;-73
2023/06/07 09:34:30;;;;;;;7.73;5.67;;;21.20;70.20;;;;;;5053116;28;20459;-72
2023/06/07 09:37:20;;;;;;;5.90;4.77;;;21.20;69.60;;;;;;5052340;28;20496;-73
2023/06/07 09:40:09;;;;;;;7.40;5.50;;;21.30;69.50;;;;;;5063368;28;20452;-72
2023/06/07 09:43:00;;;;;;;6.77;6.03;;;21.30;68.90;;;;;;5055220;28;20917;-74
2023/06/07 09:45:54;;;;;;;7.40;6.63;;;21.40;67.40;;;;;;5043998;28;20436;-72
2023/06/07 09:48:47;;;;;;;6.77;5.90;;;21.20;67.10;;;;;;5049869;28;20460;-72
2023/06/07 09:51:40;;;;;;;8.13;5.83;;;21.20;67.90;;;;;;5047759;28;20452;-73
2023/06/07 09:54:38;;;;;;;8.20;6.53;;;21.20;67.60;;;;;;5047968;28;20961;-72
2023/06/07 09:57:34;;;;;;;7.00;6.10;;;21.30;69.00;;;;;;5046726;28;20573;-72
2023/06/07 10:00:21;;;;;;;7.10;5.90;;;21.50;68.30;;;;;;5048564;28;20919;-72
2023/06/07 10:03:07;;;;;;;7.20;6.50;;;21.70;66.30;;;;;;5048546;28;20447;-73
2023/06/07 10:05:52;;;;;;;5.53;5.03;;;21.80;66.40;;;;;;5047590;28;20454;-71
2023/06/07 10:08:38;;;;;;;5.90;4.80;;;21.80;63.20;;;;;;5054723;28;20470;-73
2023/06/07 10:11:24;;;;;;;5.57;3.80;;;21.90;63.00;;;;;;5046881;28;20894;-73
2023/06/07 10:14:11;;;;;;;6.53;4.83;;;21.90;59.80;;;;;;5049013;28;20984;-73
2023/06/07 10:17:04;;;;;;;6.07;5.40;;;21.90;61.80;;;;;;5050101;28;20555;-73
2023/06/07 10:19:52;;;;;;;5.30;4.80;;;21.90;63.40;;;;;;5045678;28;20609;-73
2023/06/07 10:22:41;;;;;;;8.43;5.10;;;22.00;63.50;;;;;;5051152;28;20452;-73
2023/06/07 10:25:31;;;;;;;6.07;4.93;;;22.00;61.40;;;;;;5055084;28;20967;-73
2023/06/07 10:28:20;;;;;;;5.23;4.73;;;21.90;60.40;;;;;;5065754;28;20439;-72
2023/06/07 10:31:10;;;;;;;6.80;4.17;;;21.80;61.20;;;;;;5060734;28;20516;-73
2023/06/07 10:34:07;;;;;;;7.10;4.60;;;21.80;62.20;;;;;;5048826;28;20423;-73
2023/06/07 10:36:54;;;;;;;5.90;5.30;;;21.80;61.90;;;;;;5067090;28;20925;-73
2023/06/07 10:39:39;;;;;;;5.70;5.10;;;21.70;62.60;;;;;;5064636;28;20448;-73
2023/06/07 10:42:25;;;;;;;5.40;4.40;;;21.80;64.30;;;;;;5058805;28;20570;-72
2023/06/07 10:45:15;;;;;;;4.90;4.33;;;22.10;64.10;;;;;;5048871;28;20431;-73
2023/06/07 10:48:32;;;;;;;6.10;4.50;;;22.40;64.80;;;;;;5066550;28;20431;-73
2023/06/07 10:51:58;;;;;;;9.47;4.80;;;22.60;64.50;;;;;;5058158;28;20481;-73
2023/06/07 10:54:45;;;;;;;5.67;4.97;;;22.70;60.90;;;;;;5069781;28;20435;-73
2023/06/07 10:57:35;;;;;;;6.53;4.50;;;22.70;59.50;;;;;;5060378;28;20688;-73
2023/06/07 11:00:29;;;;;;;6.97;4.70;;;22.70;58.80;;;;;;5063214;28;20451;-74
2023/06/07 11:03:40;;;;;;;5.93;4.80;;;22.60;58.90;;;;;;5050716;28;20431;-73
2023/06/07 11:06:26;;;;;;;6.43;4.60;;;22.60;57.90;;;;;;5062660;28;20492;-73
2023/06/07 11:09:19;;;;;;;6.20;5.13;;;22.60;56.60;;;;;;5061290;28;20438;-73
2023/06/07 11:12:06;;;;;;;7.57;5.00;;;22.60;56.10;;;;;;5060047;28;20440;-74
2023/06/07 11:15:26;;;;;;;5.63;5.00;;;22.60;57.80;;;;;;5058471;28;20426;-73
2023/06/07 11:18:12;;;;;;;7.27;4.73;;;22.60;60.90;;;;;;5066917;28;20476;-73
2023/06/07 11:20:57;;;;;;;5.93;4.97;;;22.80;60.20;;;;;;5065410;28;20431;-74
2023/06/07 11:23:44;;;;;;;5.63;4.33;;;22.90;57.70;;;;;;5063402;28;20948;-74
2023/06/07 11:26:36;;;;;;;5.43;4.30;;;23.20;58.00;;;;;;5062769;28;20435;-73
2023/06/07 11:29:21;;;;;;;6.03;4.80;;;23.30;52.40;;;;;;5073135;22;20569;-73
2023/06/07 11:32:09;;;;;;;5.73;4.30;;;23.30;53.80;;;;;;5061857;28;20430;-73
2023/06/07 11:35:02;;;;;;;6.70;4.40;;;23.20;53.50;;;;;;5063118;28;20415;-73
2023/06/07 11:37:48;;;;;;;5.67;4.87;;;23.10;52.50;;;;;;5057219;28;21010;-73
2023/06/07 11:40:34;;;;;;;8.03;5.53;;;23.00;54.50;;;;;;5055168;28;20515;-73
2023/06/07 11:43:22;;;;;;;5.40;4.50;;;23.00;58.80;;;;;;5049939;28;20770;-73
2023/06/07 11:46:07;;;;;;;7.37;4.80;;;22.90;56.40;;;;;;5039769;28;20434;-73
2023/06/07 11:48:52;;;;;;;5.27;4.50;;;22.90;56.60;;;;;;5030614;28;20424;-73
2023/06/07 11:51:38;;;;;;;5.40;4.87;;;22.90;55.40;;;;;;5049717;28;20416;-74
2023/06/07 11:54:24;;;;;;;5.60;4.27;;;23.20;54.30;;;;;;5053024;28;20436;-73
2023/06/07 11:57:11;;;;;;;7.17;5.03;;;23.40;51.80;;;;;;5053739;28;20428;-73
2023/06/07 11:59:57;;;;;;;11.00;5.40;;;23.60;51.10;;;;;;5030467;28;20503;-73
2023/06/07 12:02:44;;;;;;;8.33;5.73;;;23.80;52.40;;;;;;5043318;28;20431;-73
2023/06/07 12:05:31;;;;;;;5.60;4.87;;;24.00;50.80;;;;;;5046660;28;20571;-73
2023/06/07 12:08:18;;;;;;;5.97;5.37;;;24.20;51.00;;;;;;5053041;28;20950;-73
2023/06/07 12:11:03;;;;;;;5.00;4.50;;;24.40;48.20;;;;;;5048805;28;20431;-73
2023/06/07 12:13:54;;;;;;;5.77;4.90;;;24.50;46.30;;;;;;5038704;28;20593;-73
2023/06/07 12:16:39;;;;;;;5.50;4.47;;;24.60;45.80;;;;;;5038843;28;20784;-73
2023/06/07 12:19:25;;;;;;;5.10;4.13;;;24.70;43.80;;;;;;5049730;28;20843;-74
2023/06/07 12:22:10;;;;;;;6.40;3.53;;;24.70;44.60;;;;;;5041432;28;20511;-73
2023/06/07 12:25:07;;;;;;;4.80;3.70;;;24.80;41.70;;;;;;5037903;28;20424;-73
2023/06/07 12:27:54;;;;;;;4.10;3.57;;;25.00;41.50;;;;;;5037022;28;20424;-73
2023/06/07 12:30:42;;;;;;;4.30;3.43;;;25.10;40.70;;;;;;5050203;28;20594;-73
2023/06/07 12:33:28;;;;;;;6.47;3.90;;;25.30;40.80;;;;;;5045042;28;20440;-74
2023/06/07 12:36:14;;;;;;;5.70;3.80;;;25.50;35.70;;;;;;5052804;28;20570;-73
2023/06/07 12:39:00;;;;;;;3.97;3.30;;;25.50;31.20;;;;;;5049520;28;20476;-73
2023/06/07 12:41:45;;;;;;;3.80;3.23;;;25.60;31.10;;;;;;5049459;28;20439;-74
2023/06/07 12:44:31;;;;;;;3.63;3.00;;;25.70;34.60;;;;;;5017944;28;20438;-74
2023/06/07 12:47:18;;;;;;;3.50;3.20;;;25.80;31.20;;;;;;5028559;28;20459;-73
2023/06/07 12:50:05;;;;;;;3.77;2.90;;;25.90;28.60;;;;;;5020870;28;20842;-73
2023/06/07 12:52:51;;;;;;;3.30;2.77;;;25.90;28.30;;;;;;5033395;28;20464;-71
2023/06/07 12:55:36;;;;;;;3.63;2.93;;;26.00;29.70;;;;;;5025384;28;20529;-74
2023/06/07 12:58:21;;;;;;;3.30;2.63;;;26.00;26.90;;;;;;5040194;28;20567;-73
2023/06/07 13:01:07;;;;;;;5.00;2.87;;;25.90;27.60;;;;;;5039530;28;21018;-73
2023/06/07 13:03:54;;;;;;;4.73;3.83;;;26.00;26.80;;;;;;5034716;28;20868;-72
2023/06/07 13:06:39;;;;;;;3.97;3.20;;;26.10;25.70;;;;;;5023660;28;20467;-74
2023/06/07 13:09:24;;;;;;;3.80;2.90;;;26.00;25.80;;;;;;5029987;28;20927;-74
2023/06/07 13:12:11;;;;;;;3.60;3.13;;;25.80;24.80;;;;;;5015435;28;20447;-73
2023/06/07 13:14:56;;;;;;;7.17;3.17;;;25.50;26.60;;;;;;5017348;28;20445;-73
2023/06/07 13:17:42;;;;;;;4.20;3.07;;;25.30;28.90;;;;;;5022500;28;20448;-73
2023/06/07 13:20:29;;;;;;;3.50;2.67;;;25.40;28.30;;;;;;5026304;28;20461;-74
2023/06/07 13:23:14;;;;;;;4.30;3.03;;;25.70;29.00;;;;;;5033115;28;20527;-74
2023/06/07 13:26:00;;;;;;;5.10;3.43;;;26.00;27.40;;;;;;5025606;28;20502;-74
2023/06/07 13:28:46;;;;;;;7.70;3.70;;;26.00;27.10;;;;;;5017951;28;20448;-74
2023/06/07 13:31:32;;;;;;;4.90;3.10;;;25.70;27.80;;;;;;5025705;28;20484;-74
2023/06/07 13:34:17;;;;;;;5.07;3.40;;;25.50;28.90;;;;;;5029022;28;20570;-73
2023/06/07 13:37:04;;;;;;;3.90;3.30;;;25.50;30.00;;;;;;5033702;28;20461;-73
2023/06/07 13:39:49;;;;;;;7.17;3.63;;;25.40;29.20;;;;;;5031988;28;20489;-74
2023/06/07 13:42:35;;;;;;;4.30;3.67;;;25.50;29.90;;;;;;5036214;28;20511;-73
2023/06/07 13:45:20;;;;;;;6.63;3.40;;;25.70;31.10;;;;;;5035080;28;20933;-74
2023/06/07 13:48:06;;;;;;;4.47;3.47;;;26.10;29.90;;;;;;5029176;28;20876;-74
2023/06/07 13:50:51;;;;;;;3.87;3.47;;;26.40;26.30;;;;;;5038147;28;20545;-74
2023/06/07 13:53:39;;;;;;;3.87;3.27;;;26.70;26.10;;;;;;5030485;28;20443;-73
2023/06/07 13:56:24;;;;;;;4.43;2.90;;;26.90;24.60;;;;;;5030114;28;20455;-74
2023/06/07 13:59:09;;;;;;;9.47;3.80;;;27.10;24.20;;;;;;5018297;28;20492;-74
2023/06/07 14:01:55;;;;;;;4.60;3.10;;;27.20;25.50;;;;;;5024504;28;20960;-72
2023/06/07 14:04:41;;;;;;;3.70;3.13;;;27.30;25.30;;;;;;5036397;28;20417;-73
2023/06/07 14:07:26;;;;;;;4.07;3.57;;;27.20;24.60;;;;;;5047417;28;20428;-73
2023/06/07 14:10:13;;;;;;;4.70;3.83;;;27.00;23.90;;;;;;5032689;28;20445;-73
2023/06/07 14:12:59;;;;;;;3.77;3.07;;;26.50;25.30;;;;;;5020819;28;20519;-73
2023/06/07 14:15:44;;;;;;;4.00;3.57;;;26.10;25.20;;;;;;5038790;28;20439;-73
2023/06/07 14:18:30;;;;;;;3.83;3.43;;;25.70;25.60;;;;;;5045809;28;20509;-73
2023/06/07 14:21:16;;;;;;;3.60;3.13;;;25.40;26.00;;;;;;5039526;28;20563;-73
2023/06/07 14:24:01;;;;;;;4.60;3.50;;;25.10;27.30;;;;;;5038708;28;20502;-73
2023/06/07 14:26:48;;;;;;;3.80;3.40;;;25.00;28.70;;;;;;5036178;28;20534;-73